sensor_id;sensor_type;location;lat;lon;timestamp;temperature;humidity
26412;DHT22;59168;;;2022-09-09T00:00:53;13.70;99.90
26412;DHT22;59168;;;2022-09-09T00:03:25;13.70;99.90
26412;DHT22;59168;;;2022-09-09T00:05:59;13.70;99.90
26412;DHT22;59168;;;2022-09-09T00:12:15;13.50;99.90
26412;DHT22;59168;;;2022-09-09T00:14:48;13.50;99.90
26412;DHT22;59168;;;2022-09-09T00:17:12;13.40;99.90
26412;DHT22;59168;;;2022-09-09T00:24:45;13.30;99.90
26412;DHT22;59168;;;2022-09-09T00:27:25;13.40;99.90
26412;DHT22;59168;;;2022-09-09T00:30:30;13.40;99.90
26412;DHT22;59168;;;2022-09-09T00:32:48;13.40;99.90
26412;DHT22;59168;;;2022-09-09T00:37:44;13.40;99.90
26412;DHT22;59168;;;2022-09-09T00:43:01;13.40;99.90
26412;DHT22;59168;;;2022-09-09T00:47:56;13.40;99.90
26412;DHT22;59168;;;2022-09-09T00:53:20;13.30;99.90
26412;DHT22;59168;;;2022-09-09T00:58:53;13.20;99.90
26412;DHT22;59168;;;2022-09-09T01:01:23;13.20;99.90
26412;DHT22;59168;;;2022-09-09T01:03:55;13.20;99.90
26412;DHT22;59168;;;2022-09-09T01:06:31;13.20;99.90
26412;DHT22;59168;;;2022-09-09T01:11:28;13.20;99.90
26412;DHT22;59168;;;2022-09-09T01:14:01;13.20;99.90
26412;DHT22;59168;;;2022-09-09T01:16:29;13.20;99.90
26412;DHT22;59168;;;2022-09-09T01:18:55;13.10;99.90
26412;DHT22;59168;;;2022-09-09T01:28:52;13.00;99.90
26412;DHT22;59168;;;2022-09-09T01:31:28;13.00;99.90
26412;DHT22;59168;;;2022-09-09T01:33:55;13.00;99.90
26412;DHT22;59168;;;2022-09-09T01:36:23;13.00;99.90
26412;DHT22;59168;;;2022-09-09T01:38:50;13.00;99.90
26412;DHT22;59168;;;2022-09-09T01:41:16;13.00;99.90
26412;DHT22;59168;;;2022-09-09T01:43:41;12.90;99.90
26412;DHT22;59168;;;2022-09-09T01:46:07;12.90;99.90
26412;DHT22;59168;;;2022-09-09T01:48:32;12.80;99.90
26412;DHT22;59168;;;2022-09-09T01:50:58;12.80;99.90
26412;DHT22;59168;;;2022-09-09T01:53:23;12.80;99.90
26412;DHT22;59168;;;2022-09-09T02:00:50;12.80;99.90
26412;DHT22;59168;;;2022-09-09T02:03:20;12.80;99.90
26412;DHT22;59168;;;2022-09-09T02:06:04;12.80;99.90
26412;DHT22;59168;;;2022-09-09T02:08:53;12.80;99.90
26412;DHT22;59168;;;2022-09-09T02:11:18;12.90;99.90
26412;DHT22;59168;;;2022-09-09T02:13:44;12.80;99.90
26412;DHT22;59168;;;2022-09-09T02:18:49;12.80;99.90
26412;DHT22;59168;;;2022-09-09T02:21:16;12.80;99.90
26412;DHT22;59168;;;2022-09-09T02:23:42;12.70;99.90
26412;DHT22;59168;;;2022-09-09T02:26:08;12.70;99.90
26412;DHT22;59168;;;2022-09-09T02:28:35;12.70;99.90
26412;DHT22;59168;;;2022-09-09T02:31:01;12.70;99.90
26412;DHT22;59168;;;2022-09-09T02:33:28;13.00;99.90
26412;DHT22;59168;;;2022-09-09T02:35:55;12.60;99.90
26412;DHT22;59168;;;2022-09-09T02:38:29;12.70;99.90
26412;DHT22;59168;;;2022-09-09T02:40:56;12.60;99.90
26412;DHT22;59168;;;2022-09-09T02:43:21;12.60;99.90
26412;DHT22;59168;;;2022-09-09T02:45:49;12.50;99.90
26412;DHT22;59168;;;2022-09-09T02:48:20;12.60;99.90
26412;DHT22;59168;;;2022-09-09T02:50:51;12.50;99.90
26412;DHT22;59168;;;2022-09-09T02:53:21;12.50;99.90
26412;DHT22;59168;;;2022-09-09T02:55:49;12.50;99.90
26412;DHT22;59168;;;2022-09-09T02:58:17;12.50;99.90
26412;DHT22;59168;;;2022-09-09T03:00:43;12.50;99.90
26412;DHT22;59168;;;2022-09-09T03:03:09;12.50;99.90
26412;DHT22;59168;;;2022-09-09T03:05:34;12.50;99.90
26412;DHT22;59168;;;2022-09-09T03:08:01;12.60;99.90
26412;DHT22;59168;;;2022-09-09T03:10:27;12.60;99.90
26412;DHT22;59168;;;2022-09-09T03:12:52;12.50;99.90
26412;DHT22;59168;;;2022-09-09T03:15:18;12.60;99.90
26412;DHT22;59168;;;2022-09-09T03:17:43;12.50;99.90
26412;DHT22;59168;;;2022-09-09T03:20:09;12.60;99.90
26412;DHT22;59168;;;2022-09-09T03:22:35;12.60;99.90
26412;DHT22;59168;;;2022-09-09T03:25:00;12.50;99.90
26412;DHT22;59168;;;2022-09-09T03:27:28;12.60;99.90
26412;DHT22;59168;;;2022-09-09T03:29:53;12.50;99.90
26412;DHT22;59168;;;2022-09-09T03:32:20;12.50;99.90
26412;DHT22;59168;;;2022-09-09T03:34:47;12.50;99.90
26412;DHT22;59168;;;2022-09-09T03:37:15;12.50;99.90
26412;DHT22;59168;;;2022-09-09T03:39:40;12.50;99.90
26412;DHT22;59168;;;2022-09-09T03:42:06;12.40;99.90
26412;DHT22;59168;;;2022-09-09T03:44:31;12.40;99.90
26412;DHT22;59168;;;2022-09-09T03:46:57;12.40;99.90
26412;DHT22;59168;;;2022-09-09T03:49:25;12.40;99.90
26412;DHT22;59168;;;2022-09-09T03:51:51;12.40;99.90
26412;DHT22;59168;;;2022-09-09T03:54:16;12.40;99.90
26412;DHT22;59168;;;2022-09-09T03:56:42;12.30;99.90
26412;DHT22;59168;;;2022-09-09T03:59:07;12.30;99.90
26412;DHT22;59168;;;2022-09-09T04:01:34;12.20;99.90
26412;DHT22;59168;;;2022-09-09T04:03:59;12.20;99.90
26412;DHT22;59168;;;2022-09-09T04:06:25;12.20;99.90
26412;DHT22;59168;;;2022-09-09T04:08:51;12.20;99.90
26412;DHT22;59168;;;2022-09-09T04:11:17;12.20;99.90
26412;DHT22;59168;;;2022-09-09T04:13:43;12.10;99.90
26412;DHT22;59168;;;2022-09-09T04:16:10;12.10;99.90
26412;DHT22;59168;;;2022-09-09T04:18:36;12.10;99.90
26412;DHT22;59168;;;2022-09-09T04:21:02;12.20;99.90
26412;DHT22;59168;;;2022-09-09T04:23:29;12.30;99.90
26412;DHT22;59168;;;2022-09-09T04:25:55;12.20;99.90
26412;DHT22;59168;;;2022-09-09T04:28:22;12.30;99.90
26412;DHT22;59168;;;2022-09-09T04:30:48;12.30;99.90
26412;DHT22;59168;;;2022-09-09T04:33:13;12.30;99.90
26412;DHT22;59168;;;2022-09-09T04:35:39;12.30;99.90
26412;DHT22;59168;;;2022-09-09T04:38:08;12.30;99.90
26412;DHT22;59168;;;2022-09-09T04:40:34;12.30;99.90
26412;DHT22;59168;;;2022-09-09T04:43:00;12.30;99.90
26412;DHT22;59168;;;2022-09-09T04:45:26;12.30;99.90
26412;DHT22;59168;;;2022-09-09T04:47:52;12.40;99.90
26412;DHT22;59168;;;2022-09-09T04:50:18;12.40;99.90
26412;DHT22;59168;;;2022-09-09T04:52:44;12.40;99.90
26412;DHT22;59168;;;2022-09-09T04:55:09;12.50;99.90
26412;DHT22;59168;;;2022-09-09T04:57:35;12.60;99.90
26412;DHT22;59168;;;2022-09-09T05:00:00;12.60;99.90
26412;DHT22;59168;;;2022-09-09T05:02:27;12.70;99.90
26412;DHT22;59168;;;2022-09-09T05:04:53;12.80;99.90
26412;DHT22;59168;;;2022-09-09T05:07:19;13.00;99.90
26412;DHT22;59168;;;2022-09-09T05:09:44;13.50;99.90
26412;DHT22;59168;;;2022-09-09T05:12:10;14.50;99.90
26412;DHT22;59168;;;2022-09-09T05:14:36;15.40;99.90
26412;DHT22;59168;;;2022-09-09T05:17:03;16.30;99.90
26412;DHT22;59168;;;2022-09-09T05:19:28;17.60;99.90
26412;DHT22;59168;;;2022-09-09T05:21:54;18.50;99.90
26412;DHT22;59168;;;2022-09-09T05:24:19;19.40;99.90
26412;DHT22;59168;;;2022-09-09T05:26:45;20.40;99.90
26412;DHT22;59168;;;2022-09-09T05:29:10;20.70;99.90
26412;DHT22;59168;;;2022-09-09T05:31:36;21.30;99.90
26412;DHT22;59168;;;2022-09-09T05:34:02;21.60;99.90
26412;DHT22;59168;;;2022-09-09T05:36:27;22.10;99.90
26412;DHT22;59168;;;2022-09-09T05:38:53;22.90;99.90
26412;DHT22;59168;;;2022-09-09T05:41:21;23.20;99.90
26412;DHT22;59168;;;2022-09-09T05:43:48;23.00;99.90
26412;DHT22;59168;;;2022-09-09T05:46:15;22.90;99.90
26412;DHT22;59168;;;2022-09-09T05:48:41;23.10;99.90
26412;DHT22;59168;;;2022-09-09T05:51:11;23.40;99.90
26412;DHT22;59168;;;2022-09-09T05:53:38;24.00;99.90
26412;DHT22;59168;;;2022-09-09T05:56:04;24.10;99.90
26412;DHT22;59168;;;2022-09-09T05:58:31;24.40;99.90
26412;DHT22;59168;;;2022-09-09T06:01:00;25.10;99.90
26412;DHT22;59168;;;2022-09-09T06:03:26;25.20;99.90
26412;DHT22;59168;;;2022-09-09T06:06:01;24.70;99.90
26412;DHT22;59168;;;2022-09-09T06:08:27;24.30;99.90
26412;DHT22;59168;;;2022-09-09T06:10:53;24.60;99.90
26412;DHT22;59168;;;2022-09-09T06:13:18;25.30;99.90
26412;DHT22;59168;;;2022-09-09T06:15:50;25.30;99.90
26412;DHT22;59168;;;2022-09-09T06:18:17;25.70;99.90
26412;DHT22;59168;;;2022-09-09T06:20:53;25.80;99.90
26412;DHT22;59168;;;2022-09-09T06:23:19;26.00;99.90
26412;DHT22;59168;;;2022-09-09T06:25:45;27.10;99.90
26412;DHT22;59168;;;2022-09-09T06:28:11;27.10;99.90
26412;DHT22;59168;;;2022-09-09T06:30:36;25.50;99.90
26412;DHT22;59168;;;2022-09-09T06:33:02;23.60;99.90
26412;DHT22;59168;;;2022-09-09T06:35:27;22.10;99.90
26412;DHT22;59168;;;2022-09-09T06:37:53;21.30;99.90
26412;DHT22;59168;;;2022-09-09T06:40:19;21.50;99.90
26412;DHT22;59168;;;2022-09-09T06:42:44;20.90;99.90
26412;DHT22;59168;;;2022-09-09T06:45:10;20.70;99.90
26412;DHT22;59168;;;2022-09-09T06:47:36;20.70;99.90
26412;DHT22;59168;;;2022-09-09T06:50:01;22.20;99.90
26412;DHT22;59168;;;2022-09-09T06:52:27;24.00;99.90
26412;DHT22;59168;;;2022-09-09T06:54:53;25.50;99.90
26412;DHT22;59168;;;2022-09-09T06:57:19;27.00;99.90
26412;DHT22;59168;;;2022-09-09T06:59:44;28.10;99.90
26412;DHT22;59168;;;2022-09-09T07:02:10;29.20;99.80
26412;DHT22;59168;;;2022-09-09T07:04:35;29.30;99.50
26412;DHT22;59168;;;2022-09-09T07:07:02;29.60;96.90
26412;DHT22;59168;;;2022-09-09T07:09:27;30.50;96.30
26412;DHT22;59168;;;2022-09-09T07:11:54;30.70;95.00
26412;DHT22;59168;;;2022-09-09T07:14:20;31.00;95.40
26412;DHT22;59168;;;2022-09-09T07:16:46;30.00;94.90
26412;DHT22;59168;;;2022-09-09T07:19:12;30.10;95.50
26412;DHT22;59168;;;2022-09-09T07:21:37;29.70;95.80
26412;DHT22;59168;;;2022-09-09T07:24:04;29.60;95.50
26412;DHT22;59168;;;2022-09-09T07:26:33;30.10;95.40
26412;DHT22;59168;;;2022-09-09T07:28:58;30.30;95.20
26412;DHT22;59168;;;2022-09-09T07:33:50;30.50;93.70
26412;DHT22;59168;;;2022-09-09T07:36:23;30.10;93.60
26412;DHT22;59168;;;2022-09-09T07:38:53;30.50;94.40
26412;DHT22;59168;;;2022-09-09T07:41:29;31.40;94.30
26412;DHT22;59168;;;2022-09-09T07:43:57;32.10;93.10
26412;DHT22;59168;;;2022-09-09T07:46:24;31.80;92.60
26412;DHT22;59168;;;2022-09-09T07:48:51;32.10;93.00
26412;DHT22;59168;;;2022-09-09T07:51:18;31.80;91.80
26412;DHT22;59168;;;2022-09-09T07:53:45;32.50;92.20
26412;DHT22;59168;;;2022-09-09T07:56:12;32.50;91.10
26412;DHT22;59168;;;2022-09-09T07:58:38;31.40;91.30
26412;DHT22;59168;;;2022-09-09T08:01:12;29.70;92.10
26412;DHT22;59168;;;2022-09-09T08:03:37;27.50;94.90
26412;DHT22;59168;;;2022-09-09T08:06:04;25.70;96.50
26412;DHT22;59168;;;2022-09-09T08:08:30;25.10;99.00
26412;DHT22;59168;;;2022-09-09T08:11:08;24.40;99.90
26412;DHT22;59168;;;2022-09-09T08:13:35;24.10;99.90
26412;DHT22;59168;;;2022-09-09T08:16:11;23.70;99.90
26412;DHT22;59168;;;2022-09-09T08:18:37;23.10;99.90
26412;DHT22;59168;;;2022-09-09T08:21:11;22.50;99.90
26412;DHT22;59168;;;2022-09-09T08:23:38;22.40;99.90
26412;DHT22;59168;;;2022-09-09T08:26:05;22.30;99.90
26412;DHT22;59168;;;2022-09-09T08:28:30;22.10;99.90
26412;DHT22;59168;;;2022-09-09T08:31:04;22.20;99.90
26412;DHT22;59168;;;2022-09-09T08:33:29;22.30;99.90
26412;DHT22;59168;;;2022-09-09T08:35:55;22.10;99.90
26412;DHT22;59168;;;2022-09-09T08:38:21;22.00;99.90
26412;DHT22;59168;;;2022-09-09T08:40:46;21.80;99.90
26412;DHT22;59168;;;2022-09-09T08:43:14;21.70;99.90
26412;DHT22;59168;;;2022-09-09T08:46:06;21.60;99.90
26412;DHT22;59168;;;2022-09-09T08:48:37;21.40;99.90
26412;DHT22;59168;;;2022-09-09T08:51:06;21.30;99.90
26412;DHT22;59168;;;2022-09-09T08:53:37;21.30;99.90
26412;DHT22;59168;;;2022-09-09T08:56:08;21.40;99.90
26412;DHT22;59168;;;2022-09-09T08:58:35;21.80;99.90
26412;DHT22;59168;;;2022-09-09T09:11:48;23.40;99.90
26412;DHT22;59168;;;2022-09-09T09:14:21;23.90;99.90
26412;DHT22;59168;;;2022-09-09T09:16:53;24.70;99.90
26412;DHT22;59168;;;2022-09-09T09:19:19;26.00;99.90
26412;DHT22;59168;;;2022-09-09T09:21:50;27.60;99.90
26412;DHT22;59168;;;2022-09-09T09:24:18;28.80;98.70
26412;DHT22;59168;;;2022-09-09T09:26:45;29.40;97.40
26412;DHT22;59168;;;2022-09-09T09:29:12;29.40;97.30
26412;DHT22;59168;;;2022-09-09T09:31:41;29.70;95.60
26412;DHT22;59168;;;2022-09-09T09:34:07;30.20;96.60
26412;DHT22;59168;;;2022-09-09T09:36:35;31.10;94.70
26412;DHT22;59168;;;2022-09-09T09:39:03;32.00;94.00
26412;DHT22;59168;;;2022-09-09T09:41:34;32.80;92.60
26412;DHT22;59168;;;2022-09-09T09:44:00;33.10;91.60
26412;DHT22;59168;;;2022-09-09T09:46:26;33.60;90.90
26412;DHT22;59168;;;2022-09-09T09:49:00;34.80;91.80
26412;DHT22;59168;;;2022-09-09T09:51:25;35.30;90.00
26412;DHT22;59168;;;2022-09-09T09:53:51;35.60;87.00
26412;DHT22;59168;;;2022-09-09T09:56:25;35.50;86.20
26412;DHT22;59168;;;2022-09-09T09:58:51;35.00;85.40
26412;DHT22;59168;;;2022-09-09T10:01:28;33.40;85.40
26412;DHT22;59168;;;2022-09-09T10:03:57;31.90;87.70
26412;DHT22;59168;;;2022-09-09T10:06:56;30.70;89.80
26412;DHT22;59168;;;2022-09-09T10:09:33;30.00;91.00
26412;DHT22;59168;;;2022-09-09T10:14:52;30.30;90.40
26412;DHT22;59168;;;2022-09-09T10:19:56;28.80;92.30
26412;DHT22;59168;;;2022-09-09T10:22:27;28.90;92.80
26412;DHT22;59168;;;2022-09-09T10:24:57;28.70;92.60
26412;DHT22;59168;;;2022-09-09T10:27:35;28.50;93.20
26412;DHT22;59168;;;2022-09-09T10:32:40;30.10;92.30
26412;DHT22;59168;;;2022-09-09T10:35:10;30.70;90.90
26412;DHT22;59168;;;2022-09-09T10:40:15;31.70;90.50
26412;DHT22;59168;;;2022-09-09T10:42:44;32.00;90.90
26412;DHT22;59168;;;2022-09-09T10:45:17;33.10;88.00
26412;DHT22;59168;;;2022-09-09T10:48:07;33.80;88.00
26412;DHT22;59168;;;2022-09-09T10:55:42;36.00;81.90
26412;DHT22;59168;;;2022-09-09T10:58:10;36.20;83.20
26412;DHT22;59168;;;2022-09-09T11:00:42;36.10;81.30
26412;DHT22;59168;;;2022-09-09T11:03:20;35.80;79.20
26412;DHT22;59168;;;2022-09-09T11:05:55;34.30;81.00
26412;DHT22;59168;;;2022-09-09T11:08:32;33.60;81.90
26412;DHT22;59168;;;2022-09-09T11:18:44;32.40;81.40
26412;DHT22;59168;;;2022-09-09T11:24:04;32.50;82.80
26412;DHT22;59168;;;2022-09-09T11:26:38;30.60;83.80
26412;DHT22;59168;;;2022-09-09T11:32:06;30.10;86.50
26412;DHT22;59168;;;2022-09-09T11:34:38;29.60;87.90
26412;DHT22;59168;;;2022-09-09T11:44:32;29.40;87.40
26412;DHT22;59168;;;2022-09-09T11:46:58;28.60;88.70
26412;DHT22;59168;;;2022-09-09T11:51:52;26.90;91.40
26412;DHT22;59168;;;2022-09-09T11:56:54;28.50;90.50
26412;DHT22;59168;;;2022-09-09T11:59:27;29.30;88.50
26412;DHT22;59168;;;2022-09-09T12:02:03;30.00;88.90
26412;DHT22;59168;;;2022-09-09T12:04:37;31.00;85.80
26412;DHT22;59168;;;2022-09-09T12:07:21;31.20;85.00
26412;DHT22;59168;;;2022-09-09T12:10:01;31.00;85.30
26412;DHT22;59168;;;2022-09-09T12:12:32;31.20;81.40
26412;DHT22;59168;;;2022-09-09T12:17:37;32.00;82.00
26412;DHT22;59168;;;2022-09-09T12:20:22;31.50;81.50
26412;DHT22;59168;;;2022-09-09T12:30:32;28.30;86.30
26412;DHT22;59168;;;2022-09-09T12:33:08;27.90;87.70
26412;DHT22;59168;;;2022-09-09T12:35:35;27.20;87.90
26412;DHT22;59168;;;2022-09-09T12:38:03;26.60;89.20
26412;DHT22;59168;;;2022-09-09T12:40:33;26.00;90.80
26412;DHT22;59168;;;2022-09-09T12:43:21;25.60;90.90
26412;DHT22;59168;;;2022-09-09T12:45:46;24.90;92.10
26412;DHT22;59168;;;2022-09-09T12:48:15;24.80;92.70
26412;DHT22;59168;;;2022-09-09T12:50:49;24.40;93.20
26412;DHT22;59168;;;2022-09-09T12:53:25;24.40;94.00
26412;DHT22;59168;;;2022-09-09T12:55:54;24.50;93.60
26412;DHT22;59168;;;2022-09-09T12:58:20;24.40;93.70
26412;DHT22;59168;;;2022-09-09T13:00:53;24.50;93.80
26412;DHT22;59168;;;2022-09-09T13:03:21;24.40;93.80
26412;DHT22;59168;;;2022-09-09T13:05:47;24.30;94.00
26412;DHT22;59168;;;2022-09-09T13:08:14;24.20;94.30
26412;DHT22;59168;;;2022-09-09T13:10:44;24.40;94.40
26412;DHT22;59168;;;2022-09-09T13:13:13;24.50;94.30
26412;DHT22;59168;;;2022-09-09T13:15:39;24.70;94.00
26412;DHT22;59168;;;2022-09-09T13:18:06;24.50;94.10
26412;DHT22;59168;;;2022-09-09T13:20:33;24.50;94.30
26412;DHT22;59168;;;2022-09-09T13:22:58;24.50;93.80
26412;DHT22;59168;;;2022-09-09T13:27:55;24.80;94.10
26412;DHT22;59168;;;2022-09-09T13:30:22;24.80;94.10
26412;DHT22;59168;;;2022-09-09T13:33:05;24.90;94.00
26412;DHT22;59168;;;2022-09-09T13:35:31;25.10;93.20
26412;DHT22;59168;;;2022-09-09T13:37:57;25.20;93.40
26412;DHT22;59168;;;2022-09-09T13:40:23;25.60;93.60
26412;DHT22;59168;;;2022-09-09T13:42:56;25.80;93.50
26412;DHT22;59168;;;2022-09-09T13:45:22;25.80;92.60
26412;DHT22;59168;;;2022-09-09T13:47:52;25.30;93.00
26412;DHT22;59168;;;2022-09-09T13:52:46;24.70;93.50
26412;DHT22;59168;;;2022-09-09T13:55:12;24.60;94.00
26412;DHT22;59168;;;2022-09-09T13:57:38;24.50;94.20
26412;DHT22;59168;;;2022-09-09T14:00:04;24.60;94.70
26412;DHT22;59168;;;2022-09-09T14:02:32;24.80;95.00
26412;DHT22;59168;;;2022-09-09T14:04:57;24.80;94.40
26412;DHT22;59168;;;2022-09-09T14:07:23;24.50;94.40
26412;DHT22;59168;;;2022-09-09T14:09:48;24.30;94.90
26412;DHT22;59168;;;2022-09-09T14:12:17;24.00;93.70
26412;DHT22;59168;;;2022-09-09T14:14:43;23.80;94.30
26412;DHT22;59168;;;2022-09-09T14:17:09;23.90;94.70
26412;DHT22;59168;;;2022-09-09T14:19:34;24.00;94.60
26412;DHT22;59168;;;2022-09-09T14:22:00;23.90;95.00
26412;DHT22;59168;;;2022-09-09T14:24:26;23.80;95.20
26412;DHT22;59168;;;2022-09-09T14:26:53;23.70;95.30
26412;DHT22;59168;;;2022-09-09T14:29:18;23.60;96.40
26412;DHT22;59168;;;2022-09-09T14:31:44;23.30;96.90
26412;DHT22;59168;;;2022-09-09T14:34:10;22.90;97.60
26412;DHT22;59168;;;2022-09-09T14:36:36;22.70;97.80
26412;DHT22;59168;;;2022-09-09T14:39:02;22.60;97.90
26412;DHT22;59168;;;2022-09-09T14:41:27;22.40;97.90
26412;DHT22;59168;;;2022-09-09T14:43:54;22.40;98.00
26412;DHT22;59168;;;2022-09-09T14:46:20;22.30;97.90
26412;DHT22;59168;;;2022-09-09T14:48:46;22.40;97.70
26412;DHT22;59168;;;2022-09-09T14:51:14;22.50;97.90
26412;DHT22;59168;;;2022-09-09T14:53:41;22.60;98.10
26412;DHT22;59168;;;2022-09-09T14:58:32;22.80;97.60
26412;DHT22;59168;;;2022-09-09T15:01:02;22.80;97.90
26412;DHT22;59168;;;2022-09-09T15:03:27;22.80;97.10
26412;DHT22;59168;;;2022-09-09T15:05:53;22.80;97.50
26412;DHT22;59168;;;2022-09-09T15:08:18;22.80;97.60
26412;DHT22;59168;;;2022-09-09T15:10:44;22.90;98.10
26412;DHT22;59168;;;2022-09-09T15:13:10;23.00;98.10
26412;DHT22;59168;;;2022-09-09T15:15:35;23.00;97.80
26412;DHT22;59168;;;2022-09-09T15:18:01;23.20;97.60
26412;DHT22;59168;;;2022-09-09T15:20:26;23.20;97.70
26412;DHT22;59168;;;2022-09-09T15:22:52;23.20;97.30
26412;DHT22;59168;;;2022-09-09T15:25:18;23.10;97.70
26412;DHT22;59168;;;2022-09-09T15:27:43;23.10;97.80
26412;DHT22;59168;;;2022-09-09T15:30:09;23.00;98.10
26412;DHT22;59168;;;2022-09-09T15:32:35;22.90;98.30
26412;DHT22;59168;;;2022-09-09T15:35:00;22.90;98.40
26412;DHT22;59168;;;2022-09-09T15:37:26;22.90;98.50
26412;DHT22;59168;;;2022-09-09T15:39:52;22.90;98.60
26412;DHT22;59168;;;2022-09-09T15:42:17;22.90;98.80
26412;DHT22;59168;;;2022-09-09T15:44:43;22.90;98.70
26412;DHT22;59168;;;2022-09-09T15:47:11;23.00;99.10
26412;DHT22;59168;;;2022-09-09T15:49:38;23.00;98.90
26412;DHT22;59168;;;2022-09-09T15:52:04;23.00;99.00
26412;DHT22;59168;;;2022-09-09T15:54:35;23.00;98.40
26412;DHT22;59168;;;2022-09-09T15:57:05;23.10;98.50
26412;DHT22;59168;;;2022-09-09T15:59:30;23.10;98.70
26412;DHT22;59168;;;2022-09-09T16:01:57;23.10;98.10
26412;DHT22;59168;;;2022-09-09T16:04:24;22.90;98.20
26412;DHT22;59168;;;2022-09-09T16:06:53;22.80;98.40
26412;DHT22;59168;;;2022-09-09T16:09:19;22.80;97.90
26412;DHT22;59168;;;2022-09-09T16:11:44;22.80;98.10
26412;DHT22;59168;;;2022-09-09T16:14:10;22.80;97.70
26412;DHT22;59168;;;2022-09-09T16:16:36;22.70;97.90
26412;DHT22;59168;;;2022-09-09T16:19:03;22.70;98.00
26412;DHT22;59168;;;2022-09-09T16:21:36;22.70;98.20
26412;DHT22;59168;;;2022-09-09T16:24:03;22.60;98.30
26412;DHT22;59168;;;2022-09-09T16:26:29;22.50;98.50
26412;DHT22;59168;;;2022-09-09T16:28:55;22.40;98.50
26412;DHT22;59168;;;2022-09-09T16:31:22;22.40;98.90
26412;DHT22;59168;;;2022-09-09T16:33:48;22.30;99.00
26412;DHT22;59168;;;2022-09-09T16:36:15;22.20;99.00
26412;DHT22;59168;;;2022-09-09T16:38:40;22.10;99.10
26412;DHT22;59168;;;2022-09-09T16:41:06;22.00;99.30
26412;DHT22;59168;;;2022-09-09T16:43:33;21.90;99.30
26412;DHT22;59168;;;2022-09-09T16:45:59;21.90;99.60
26412;DHT22;59168;;;2022-09-09T16:48:31;21.80;99.90
26412;DHT22;59168;;;2022-09-09T16:51:04;21.70;99.90
26412;DHT22;59168;;;2022-09-09T16:53:31;21.50;99.90
26412;DHT22;59168;;;2022-09-09T16:55:56;21.40;99.90
26412;DHT22;59168;;;2022-09-09T16:58:22;21.30;99.90
26412;DHT22;59168;;;2022-09-09T17:00:47;21.20;99.90
26412;DHT22;59168;;;2022-09-09T17:03:14;21.10;99.90
26412;DHT22;59168;;;2022-09-09T17:05:40;20.90;99.90
26412;DHT22;59168;;;2022-09-09T17:08:05;20.90;99.90
26412;DHT22;59168;;;2022-09-09T17:10:31;20.70;99.90
26412;DHT22;59168;;;2022-09-09T17:12:57;20.50;99.90
26412;DHT22;59168;;;2022-09-09T17:15:22;20.40;99.90
26412;DHT22;59168;;;2022-09-09T17:17:48;20.20;99.90
26412;DHT22;59168;;;2022-09-09T17:20:18;20.00;99.90
26412;DHT22;59168;;;2022-09-09T17:22:43;19.90;99.90
26412;DHT22;59168;;;2022-09-09T17:25:09;19.80;99.90
26412;DHT22;59168;;;2022-09-09T17:27:34;19.70;99.90
26412;DHT22;59168;;;2022-09-09T17:30:00;19.70;99.90
26412;DHT22;59168;;;2022-09-09T17:32:25;19.60;99.90
26412;DHT22;59168;;;2022-09-09T17:34:51;19.40;99.90
26412;DHT22;59168;;;2022-09-09T17:37:17;19.30;99.90
26412;DHT22;59168;;;2022-09-09T17:39:43;19.20;99.90
26412;DHT22;59168;;;2022-09-09T17:42:08;19.00;99.90
26412;DHT22;59168;;;2022-09-09T17:44:33;18.90;99.90
26412;DHT22;59168;;;2022-09-09T17:46:59;18.80;99.90
26412;DHT22;59168;;;2022-09-09T17:49:25;18.70;99.90
26412;DHT22;59168;;;2022-09-09T17:51:51;18.60;99.90
26412;DHT22;59168;;;2022-09-09T17:54:17;18.50;99.90
26412;DHT22;59168;;;2022-09-09T17:56:44;18.40;99.90
26412;DHT22;59168;;;2022-09-09T17:59:10;18.30;99.90
26412;DHT22;59168;;;2022-09-09T18:01:37;18.20;99.90
26412;DHT22;59168;;;2022-09-09T18:04:04;18.10;99.90
26412;DHT22;59168;;;2022-09-09T18:06:34;18.00;99.90
26412;DHT22;59168;;;2022-09-09T18:09:02;17.90;99.90
26412;DHT22;59168;;;2022-09-09T18:11:28;17.80;99.90
26412;DHT22;59168;;;2022-09-09T18:13:55;17.70;99.90
26412;DHT22;59168;;;2022-09-09T18:16:21;17.70;99.90
26412;DHT22;59168;;;2022-09-09T18:18:47;17.60;99.90
26412;DHT22;59168;;;2022-09-09T18:21:14;17.60;99.90
26412;DHT22;59168;;;2022-09-09T18:23:41;17.50;99.90
26412;DHT22;59168;;;2022-09-09T18:26:12;17.40;99.90
26412;DHT22;59168;;;2022-09-09T18:28:39;17.30;99.90
26412;DHT22;59168;;;2022-09-09T18:31:06;17.20;99.90
26412;DHT22;59168;;;2022-09-09T18:33:33;17.20;99.90
26412;DHT22;59168;;;2022-09-09T18:36:07;17.10;99.90
26412;DHT22;59168;;;2022-09-09T18:38:33;17.10;99.90
26412;DHT22;59168;;;2022-09-09T18:41:00;17.00;99.90
26412;DHT22;59168;;;2022-09-09T18:43:27;16.90;99.90
26412;DHT22;59168;;;2022-09-09T18:45:52;16.80;99.90
26412;DHT22;59168;;;2022-09-09T18:48:18;16.80;99.90
26412;DHT22;59168;;;2022-09-09T18:50:43;16.70;99.90
26412;DHT22;59168;;;2022-09-09T18:53:09;16.70;99.90
26412;DHT22;59168;;;2022-09-09T18:55:35;16.60;99.90
26412;DHT22;59168;;;2022-09-09T18:58:02;16.60;99.90
26412;DHT22;59168;;;2022-09-09T19:00:27;16.60;99.90
26412;DHT22;59168;;;2022-09-09T19:02:53;16.50;99.90
26412;DHT22;59168;;;2022-09-09T19:05:19;16.50;99.90
26412;DHT22;59168;;;2022-09-09T19:07:44;16.40;99.90
26412;DHT22;59168;;;2022-09-09T19:10:10;16.40;99.90
26412;DHT22;59168;;;2022-09-09T19:12:35;16.30;99.90
26412;DHT22;59168;;;2022-09-09T19:15:01;16.30;99.90
26412;DHT22;59168;;;2022-09-09T19:17:26;16.30;99.90
26412;DHT22;59168;;;2022-09-09T19:19:52;16.30;99.90
26412;DHT22;59168;;;2022-09-09T19:22:19;16.20;99.90
26412;DHT22;59168;;;2022-09-09T19:24:44;16.20;99.90
26412;DHT22;59168;;;2022-09-09T19:27:10;16.30;99.90
26412;DHT22;59168;;;2022-09-09T19:29:36;16.20;99.90
26412;DHT22;59168;;;2022-09-09T19:32:03;16.40;99.90
26412;DHT22;59168;;;2022-09-09T19:34:29;16.10;99.90
26412;DHT22;59168;;;2022-09-09T19:36:55;16.10;99.90
26412;DHT22;59168;;;2022-09-09T19:39:20;16.20;99.90
26412;DHT22;59168;;;2022-09-09T19:41:46;16.20;99.90
26412;DHT22;59168;;;2022-09-09T19:44:12;16.00;99.90
26412;DHT22;59168;;;2022-09-09T19:46:38;16.30;99.90
26412;DHT22;59168;;;2022-09-09T19:49:05;15.80;99.90
26412;DHT22;59168;;;2022-09-09T19:51:31;16.20;99.90
26412;DHT22;59168;;;2022-09-09T19:53:58;16.20;99.90
26412;DHT22;59168;;;2022-09-09T19:56:26;16.40;99.90
26412;DHT22;59168;;;2022-09-09T19:58:51;16.30;99.90
26412;DHT22;59168;;;2022-09-09T20:01:19;16.00;99.90
26412;DHT22;59168;;;2022-09-09T20:03:46;16.10;99.90
26412;DHT22;59168;;;2022-09-09T20:06:13;16.40;99.90
26412;DHT22;59168;;;2022-09-09T20:08:38;16.00;99.90
26412;DHT22;59168;;;2022-09-09T20:11:04;16.10;99.90
26412;DHT22;59168;;;2022-09-09T20:13:31;15.80;99.90
26412;DHT22;59168;;;2022-09-09T20:18:25;15.80;99.90
26412;DHT22;59168;;;2022-09-09T20:20:55;15.80;99.90
26412;DHT22;59168;;;2022-09-09T20:23:20;15.80;99.90
26412;DHT22;59168;;;2022-09-09T20:25:46;15.80;99.90
26412;DHT22;59168;;;2022-09-09T20:28:12;15.70;99.90
26412;DHT22;59168;;;2022-09-09T20:30:37;15.70;99.90
26412;DHT22;59168;;;2022-09-09T20:33:03;15.70;99.90
26412;DHT22;59168;;;2022-09-09T20:35:29;15.60;99.90
26412;DHT22;59168;;;2022-09-09T20:37:55;15.60;99.90
26412;DHT22;59168;;;2022-09-09T20:40:21;15.60;99.90
26412;DHT22;59168;;;2022-09-09T20:42:46;15.60;99.90
26412;DHT22;59168;;;2022-09-09T20:45:12;15.50;99.90
26412;DHT22;59168;;;2022-09-09T20:47:40;15.50;99.90